sensor_id;sensor_type;location;lat;lon;timestamp;P1;durP1;ratioP1;P2;durP2;ratioP2
28796;SDS011;24974;54.444;18.560;2024-01-25T00:00:07;10.60;;;1.75;;
28796;SDS011;24974;54.444;18.560;2024-01-25T00:02:38;14.30;;;2.35;;
28796;SDS011;24974;54.444;18.560;2024-01-25T00:05:09;9.38;;;2.38;;
28796;SDS011;24974;54.444;18.560;2024-01-25T00:07:49;15.00;;;2.17;;
28796;SDS011;24974;54.444;18.560;2024-01-25T00:10:20;11.75;;;2.30;;
28796;SDS011;24974;54.444;18.560;2024-01-25T00:12:51;13.10;;;1.88;;
28796;SDS011;24974;54.444;18.560;2024-01-25T00:15:22;8.93;;;2.00;;
28796;SDS011;24974;54.444;18.560;2024-01-25T00:17:53;12.73;;;2.17;;
28796;SDS011;24974;54.444;18.560;2024-01-25T00:20:24;9.85;;;1.92;;
28796;SDS011;24974;54.444;18.560;2024-01-25T00:22:55;10.40;;;2.30;;
28796;SDS011;24974;54.444;18.560;2024-01-25T00:25:26;8.88;;;1.85;;
28796;SDS011;24974;54.444;18.560;2024-01-25T00:27:56;11.77;;;2.78;;
28796;SDS011;24974;54.444;18.560;2024-01-25T00:30:27;13.45;;;1.85;;
28796;SDS011;24974;54.444;18.560;2024-01-25T00:32:58;7.90;;;1.85;;
28796;SDS011;24974;54.444;18.560;2024-01-25T00:35:29;14.60;;;2.13;;
28796;SDS011;24974;54.444;18.560;2024-01-25T00:38:01;16.77;;;2.25;;
28796;SDS011;24974;54.444;18.560;2024-01-25T00:40:32;7.93;;;1.80;;
28796;SDS011;24974;54.444;18.560;2024-01-25T00:43:03;12.18;;;1.92;;
28796;SDS011;24974;54.444;18.560;2024-01-25T00:45:34;12.55;;;2.55;;
28796;SDS011;24974;54.444;18.560;2024-01-25T00:48:06;21.05;;;3.65;;
28796;SDS011;24974;54.444;18.560;2024-01-25T00:50:37;17.15;;;2.42;;
28796;SDS011;24974;54.444;18.560;2024-01-25T00:53:09;17.10;;;3.53;;
28796;SDS011;24974;54.444;18.560;2024-01-25T00:55:40;13.93;;;2.50;;
28796;SDS011;24974;54.444;18.560;2024-01-25T00:58:11;20.25;;;3.30;;
28796;SDS011;24974;54.444;18.560;2024-01-25T01:00:43;17.08;;;2.83;;
28796;SDS011;24974;54.444;18.560;2024-01-25T01:03:14;9.35;;;1.90;;
28796;SDS011;24974;54.444;18.560;2024-01-25T01:05:46;14.07;;;3.08;;
28796;SDS011;24974;54.444;18.560;2024-01-25T01:08:17;17.83;;;3.03;;
28796;SDS011;24974;54.444;18.560;2024-01-25T01:10:49;22.58;;;3.28;;
28796;SDS011;24974;54.444;18.560;2024-01-25T01:13:19;21.20;;;3.55;;
28796;SDS011;24974;54.444;18.560;2024-01-25T01:15:50;16.23;;;2.67;;
28796;SDS011;24974;54.444;18.560;2024-01-25T01:18:21;22.15;;;3.60;;
28796;SDS011;24974;54.444;18.560;2024-01-25T01:20:52;17.15;;;2.42;;
28796;SDS011;24974;54.444;18.560;2024-01-25T01:23:23;20.02;;;2.85;;
28796;SDS011;24974;54.444;18.560;2024-01-25T01:25:53;14.80;;;3.40;;
28796;SDS011;24974;54.444;18.560;2024-01-25T01:28:24;12.90;;;3.08;;
28796;SDS011;24974;54.444;18.560;2024-01-25T01:30:55;18.15;;;2.88;;
28796;SDS011;24974;54.444;18.560;2024-01-25T01:33:26;19.60;;;2.58;;
28796;SDS011;24974;54.444;18.560;2024-01-25T01:35:57;19.40;;;2.80;;
28796;SDS011;24974;54.444;18.560;2024-01-25T01:38:28;21.85;;;2.92;;
28796;SDS011;24974;54.444;18.560;2024-01-25T01:40:58;21.10;;;3.20;;
28796;SDS011;24974;54.444;18.560;2024-01-25T01:43:29;25.40;;;3.38;;
28796;SDS011;24974;54.444;18.560;2024-01-25T01:46:02;24.88;;;3.33;;
28796;SDS011;24974;54.444;18.560;2024-01-25T01:48:40;25.75;;;2.60;;
28796;SDS011;24974;54.444;18.560;2024-01-25T01:51:12;32.13;;;3.90;;
28796;SDS011;24974;54.444;18.560;2024-01-25T01:53:43;33.42;;;5.82;;
28796;SDS011;24974;54.444;18.560;2024-01-25T01:56:14;38.78;;;5.68;;
28796;SDS011;24974;54.444;18.560;2024-01-25T01:58:46;31.63;;;4.53;;
28796;SDS011;24974;54.444;18.560;2024-01-25T02:01:18;28.65;;;5.53;;
28796;SDS011;24974;54.444;18.560;2024-01-25T02:03:51;38.20;;;5.78;;
28796;SDS011;24974;54.444;18.560;2024-01-25T02:06:25;36.03;;;6.05;;
28796;SDS011;24974;54.444;18.560;2024-01-25T02:08:56;32.60;;;5.25;;
28796;SDS011;24974;54.444;18.560;2024-01-25T02:11:30;26.55;;;4.80;;
28796;SDS011;24974;54.444;18.560;2024-01-25T02:14:01;35.65;;;4.63;;
28796;SDS011;24974;54.444;18.560;2024-01-25T02:16:32;29.75;;;4.78;;
28796;SDS011;24974;54.444;18.560;2024-01-25T02:19:03;26.45;;;4.55;;
28796;SDS011;24974;54.444;18.560;2024-01-25T02:21:34;40.72;;;4.68;;
28796;SDS011;24974;54.444;18.560;2024-01-25T02:24:05;23.45;;;4.22;;
28796;SDS011;24974;54.444;18.560;2024-01-25T02:26:36;23.35;;;4.10;;
28796;SDS011;24974;54.444;18.560;2024-01-25T02:29:07;31.40;;;4.25;;
28796;SDS011;24974;54.444;18.560;2024-01-25T02:31:40;31.77;;;3.85;;
28796;SDS011;24974;54.444;18.560;2024-01-25T02:34:11;18.88;;;3.08;;
28796;SDS011;24974;54.444;18.560;2024-01-25T02:36:41;18.08;;;2.75;;
28796;SDS011;24974;54.444;18.560;2024-01-25T02:39:12;28.17;;;5.18;;
28796;SDS011;24974;54.444;18.560;2024-01-25T02:41:43;22.52;;;4.18;;
28796;SDS011;24974;54.444;18.560;2024-01-25T02:44:15;16.98;;;3.05;;
28796;SDS011;24974;54.444;18.560;2024-01-25T02:46:46;20.00;;;3.20;;
28796;SDS011;24974;54.444;18.560;2024-01-25T02:49:17;25.23;;;3.03;;
28796;SDS011;24974;54.444;18.560;2024-01-25T02:51:48;17.27;;;2.47;;
28796;SDS011;24974;54.444;18.560;2024-01-25T02:54:19;18.58;;;3.03;;
28796;SDS011;24974;54.444;18.560;2024-01-25T02:56:50;23.48;;;3.55;;
28796;SDS011;24974;54.444;18.560;2024-01-25T02:59:20;26.10;;;5.20;;
28796;SDS011;24974;54.444;18.560;2024-01-25T03:01:52;26.98;;;4.18;;
28796;SDS011;24974;54.444;18.560;2024-01-25T03:04:24;20.77;;;3.50;;
28796;SDS011;24974;54.444;18.560;2024-01-25T03:06:55;29.10;;;4.07;;
28796;SDS011;24974;54.444;18.560;2024-01-25T03:09:26;26.83;;;4.68;;
28796;SDS011;24974;54.444;18.560;2024-01-25T03:11:58;25.58;;;3.75;;
28796;SDS011;24974;54.444;18.560;2024-01-25T03:14:29;23.73;;;3.35;;
28796;SDS011;24974;54.444;18.560;2024-01-25T03:17:00;17.17;;;2.75;;
28796;SDS011;24974;54.444;18.560;2024-01-25T03:19:31;26.58;;;4.22;;
28796;SDS011;24974;54.444;18.560;2024-01-25T03:22:02;18.13;;;2.90;;
28796;SDS011;24974;54.444;18.560;2024-01-25T03:24:33;12.07;;;2.40;;
28796;SDS011;24974;54.444;18.560;2024-01-25T03:27:09;20.00;;;2.97;;
28796;SDS011;24974;54.444;18.560;2024-01-25T03:29:43;14.00;;;2.00;;
28796;SDS011;24974;54.444;18.560;2024-01-25T03:32:14;16.00;;;2.55;;
28796;SDS011;24974;54.444;18.560;2024-01-25T03:34:45;16.70;;;3.42;;
28796;SDS011;24974;54.444;18.560;2024-01-25T03:37:16;20.85;;;2.83;;
28796;SDS011;24974;54.444;18.560;2024-01-25T03:39:47;12.60;;;2.30;;
28796;SDS011;24974;54.444;18.560;2024-01-25T03:42:18;11.10;;;2.45;;
28796;SDS011;24974;54.444;18.560;2024-01-25T03:44:49;11.65;;;2.58;;
28796;SDS011;24974;54.444;18.560;2024-01-25T03:47:20;14.88;;;2.05;;
28796;SDS011;24974;54.444;18.560;2024-01-25T03:49:51;16.83;;;2.70;;
28796;SDS011;24974;54.444;18.560;2024-01-25T03:52:21;15.23;;;2.20;;
28796;SDS011;24974;54.444;18.560;2024-01-25T03:54:52;14.43;;;2.13;;
28796;SDS011;24974;54.444;18.560;2024-01-25T03:57:23;16.67;;;3.05;;
28796;SDS011;24974;54.444;18.560;2024-01-25T03:59:54;17.45;;;2.35;;
28796;SDS011;24974;54.444;18.560;2024-01-25T04:02:25;12.70;;;2.20;;
28796;SDS011;24974;54.444;18.560;2024-01-25T04:04:56;10.18;;;2.10;;
28796;SDS011;24974;54.444;18.560;2024-01-25T04:07:27;10.65;;;1.73;;
28796;SDS011;24974;54.444;18.560;2024-01-25T04:09:58;9.80;;;1.80;;
28796;SDS011;24974;54.444;18.560;2024-01-25T04:12:28;7.47;;;1.80;;
28796;SDS011;24974;54.444;18.560;2024-01-25T04:15:01;10.50;;;2.25;;
28796;SDS011;24974;54.444;18.560;2024-01-25T04:17:32;15.25;;;2.40;;
28796;SDS011;24974;54.444;18.560;2024-01-25T04:20:03;13.10;;;1.92;;
28796;SDS011;24974;54.444;18.560;2024-01-25T04:22:35;11.45;;;2.20;;
28796;SDS011;24974;54.444;18.560;2024-01-25T04:25:07;23.70;;;2.97;;
28796;SDS011;24974;54.444;18.560;2024-01-25T04:27:38;21.90;;;2.83;;
28796;SDS011;24974;54.444;18.560;2024-01-25T04:30:09;27.23;;;3.75;;
28796;SDS011;24974;54.444;18.560;2024-01-25T04:32:40;29.08;;;3.67;;
28796;SDS011;24974;54.444;18.560;2024-01-25T04:35:11;17.38;;;3.35;;
28796;SDS011;24974;54.444;18.560;2024-01-25T04:37:42;18.00;;;3.22;;
28796;SDS011;24974;54.444;18.560;2024-01-25T04:40:13;22.70;;;3.22;;
28796;SDS011;24974;54.444;18.560;2024-01-25T04:42:44;12.77;;;2.50;;
28796;SDS011;24974;54.444;18.560;2024-01-25T04:45:15;16.00;;;3.15;;
28796;SDS011;24974;54.444;18.560;2024-01-25T04:47:46;11.02;;;1.70;;
28796;SDS011;24974;54.444;18.560;2024-01-25T04:50:16;15.80;;;2.15;;
28796;SDS011;24974;54.444;18.560;2024-01-25T04:52:47;19.45;;;2.53;;
28796;SDS011;24974;54.444;18.560;2024-01-25T04:55:18;11.05;;;1.85;;
28796;SDS011;24974;54.444;18.560;2024-01-25T04:57:50;13.38;;;1.95;;
28796;SDS011;24974;54.444;18.560;2024-01-25T05:00:23;17.48;;;2.00;;
28796;SDS011;24974;54.444;18.560;2024-01-25T05:02:54;14.18;;;2.45;;
28796;SDS011;24974;54.444;18.560;2024-01-25T05:05:25;13.77;;;2.40;;
28796;SDS011;24974;54.444;18.560;2024-01-25T05:07:56;15.60;;;2.35;;
28796;SDS011;24974;54.444;18.560;2024-01-25T05:10:27;15.63;;;2.17;;
28796;SDS011;24974;54.444;18.560;2024-01-25T05:12:58;12.98;;;2.33;;
28796;SDS011;24974;54.444;18.560;2024-01-25T05:15:28;11.57;;;2.70;;
28796;SDS011;24974;54.444;18.560;2024-01-25T05:17:59;16.73;;;2.45;;
28796;SDS011;24974;54.444;18.560;2024-01-25T05:20:30;18.50;;;2.53;;
28796;SDS011;24974;54.444;18.560;2024-01-25T05:23:04;14.65;;;2.00;;
28796;SDS011;24974;54.444;18.560;2024-01-25T05:25:35;13.10;;;2.75;;
28796;SDS011;24974;54.444;18.560;2024-01-25T05:28:06;18.05;;;2.38;;
28796;SDS011;24974;54.444;18.560;2024-01-25T05:30:37;17.13;;;2.78;;
28796;SDS011;24974;54.444;18.560;2024-01-25T05:33:08;8.65;;;2.13;;
28796;SDS011;24974;54.444;18.560;2024-01-25T05:35:39;18.48;;;2.53;;
28796;SDS011;24974;54.444;18.560;2024-01-25T05:38:10;14.45;;;3.38;;
28796;SDS011;24974;54.444;18.560;2024-01-25T05:40:41;12.55;;;1.58;;
28796;SDS011;24974;54.444;18.560;2024-01-25T05:43:12;9.27;;;1.88;;
28796;SDS011;24974;54.444;18.560;2024-01-25T05:45:43;11.25;;;2.05;;
28796;SDS011;24974;54.444;18.560;2024-01-25T05:48:13;9.45;;;2.20;;
28796;SDS011;24974;54.444;18.560;2024-01-25T05:50:44;6.88;;;1.67;;
28796;SDS011;24974;54.444;18.560;2024-01-25T05:53:15;9.93;;;1.92;;
28796;SDS011;24974;54.444;18.560;2024-01-25T05:55:49;17.42;;;3.20;;
28796;SDS011;24974;54.444;18.560;2024-01-25T05:58:20;11.93;;;1.95;;
28796;SDS011;24974;54.444;18.560;2024-01-25T06:00:51;12.07;;;2.00;;
28796;SDS011;24974;54.444;18.560;2024-01-25T06:03:21;11.50;;;2.03;;
28796;SDS011;24974;54.444;18.560;2024-01-25T06:05:52;11.48;;;2.40;;
28796;SDS011;24974;54.444;18.560;2024-01-25T06:08:23;14.45;;;3.00;;
28796;SDS011;24974;54.444;18.560;2024-01-25T06:10:54;10.65;;;1.85;;
28796;SDS011;24974;54.444;18.560;2024-01-25T06:13:25;17.25;;;2.33;;
28796;SDS011;24974;54.444;18.560;2024-01-25T06:15:56;12.90;;;2.20;;
28796;SDS011;24974;54.444;18.560;2024-01-25T06:18:27;16.58;;;2.35;;
28796;SDS011;24974;54.444;18.560;2024-01-25T06:20:58;13.60;;;2.65;;
28796;SDS011;24974;54.444;18.560;2024-01-25T06:23:28;16.88;;;2.45;;
28796;SDS011;24974;54.444;18.560;2024-01-25T06:25:59;12.52;;;2.33;;
28796;SDS011;24974;54.444;18.560;2024-01-25T06:28:31;9.85;;;2.53;;
28796;SDS011;24974;54.444;18.560;2024-01-25T06:31:02;12.57;;;2.65;;
28796;SDS011;24974;54.444;18.560;2024-01-25T06:33:33;15.48;;;2.47;;
28796;SDS011;24974;54.444;18.560;2024-01-25T06:36:04;13.57;;;2.95;;
28796;SDS011;24974;54.444;18.560;2024-01-25T06:38:35;15.30;;;2.50;;
28796;SDS011;24974;54.444;18.560;2024-01-25T06:41:08;14.68;;;2.10;;
28796;SDS011;24974;54.444;18.560;2024-01-25T06:43:39;13.05;;;2.15;;
28796;SDS011;24974;54.444;18.560;2024-01-25T06:46:10;10.93;;;1.77;;
28796;SDS011;24974;54.444;18.560;2024-01-25T06:48:41;7.60;;;1.67;;
28796;SDS011;24974;54.444;18.560;2024-01-25T06:51:12;10.60;;;1.30;;
28796;SDS011;24974;54.444;18.560;2024-01-25T06:53:44;6.70;;;1.65;;
28796;SDS011;24974;54.444;18.560;2024-01-25T06:56:15;9.80;;;1.90;;
28796;SDS011;24974;54.444;18.560;2024-01-25T06:58:47;10.43;;;1.77;;
28796;SDS011;24974;54.444;18.560;2024-01-25T07:01:21;9.93;;;2.65;;
28796;SDS011;24974;54.444;18.560;2024-01-25T07:03:53;6.57;;;2.25;;
28796;SDS011;24974;54.444;18.560;2024-01-25T07:06:24;10.18;;;1.95;;
28796;SDS011;24974;54.444;18.560;2024-01-25T07:08:56;7.35;;;3.20;;
28796;SDS011;24974;54.444;18.560;2024-01-25T07:11:27;5.85;;;2.17;;
28796;SDS011;24974;54.444;18.560;2024-01-25T07:13:58;5.25;;;2.70;;
28796;SDS011;24974;54.444;18.560;2024-01-25T07:16:29;4.65;;;2.63;;
28796;SDS011;24974;54.444;18.560;2024-01-25T07:19:01;6.82;;;1.90;;
28796;SDS011;24974;54.444;18.560;2024-01-25T07:21:32;1.85;;;1.20;;
28796;SDS011;24974;54.444;18.560;2024-01-25T07:24:03;4.22;;;1.63;;
28796;SDS011;24974;54.444;18.560;2024-01-25T07:26:37;1.92;;;1.30;;
28796;SDS011;24974;54.444;18.560;2024-01-25T07:29:08;3.55;;;1.65;;
28796;SDS011;24974;54.444;18.560;2024-01-25T07:31:38;5.00;;;1.75;;
28796;SDS011;24974;54.444;18.560;2024-01-25T07:34:09;6.90;;;2.38;;
28796;SDS011;24974;54.444;18.560;2024-01-25T07:36:40;7.35;;;2.30;;
28796;SDS011;24974;54.444;18.560;2024-01-25T07:39:11;5.85;;;2.50;;
28796;SDS011;24974;54.444;18.560;2024-01-25T07:41:42;5.72;;;2.28;;
28796;SDS011;24974;54.444;18.560;2024-01-25T07:44:14;4.03;;;2.05;;
28796;SDS011;24974;54.444;18.560;2024-01-25T07:46:45;4.07;;;1.90;;
28796;SDS011;24974;54.444;18.560;2024-01-25T07:49:16;5.72;;;1.50;;
28796;SDS011;24974;54.444;18.560;2024-01-25T07:51:47;4.88;;;2.10;;
28796;SDS011;24974;54.444;18.560;2024-01-25T07:54:17;7.20;;;2.13;;
28796;SDS011;24974;54.444;18.560;2024-01-25T07:56:48;2.90;;;1.63;;
28796;SDS011;24974;54.444;18.560;2024-01-25T07:59:19;2.80;;;1.40;;
28796;SDS011;24974;54.444;18.560;2024-01-25T08:01:50;1.73;;;0.95;;
28796;SDS011;24974;54.444;18.560;2024-01-25T08:04:21;4.32;;;1.50;;
28796;SDS011;24974;54.444;18.560;2024-01-25T08:06:52;4.07;;;2.00;;
28796;SDS011;24974;54.444;18.560;2024-01-25T08:09:23;3.95;;;1.85;;
28796;SDS011;24974;54.444;18.560;2024-01-25T08:11:53;6.57;;;2.15;;
28796;SDS011;24974;54.444;18.560;2024-01-25T08:14:25;9.10;;;2.08;;
28796;SDS011;24974;54.444;18.560;2024-01-25T08:16:55;6.45;;;2.65;;
28796;SDS011;24974;54.444;18.560;2024-01-25T08:19:26;6.68;;;2.35;;
28796;SDS011;24974;54.444;18.560;2024-01-25T08:21:57;6.03;;;2.40;;
28796;SDS011;24974;54.444;18.560;2024-01-25T08:24:28;5.47;;;1.63;;
28796;SDS011;24974;54.444;18.560;2024-01-25T08:26:59;7.25;;;2.78;;
28796;SDS011;24974;54.444;18.560;2024-01-25T08:29:30;5.78;;;1.98;;
28796;SDS011;24974;54.444;18.560;2024-01-25T08:32:01;10.82;;;2.13;;
28796;SDS011;24974;54.444;18.560;2024-01-25T08:34:31;12.13;;;2.65;;
28796;SDS011;24974;54.444;18.560;2024-01-25T08:37:02;10.18;;;2.70;;
28796;SDS011;24974;54.444;18.560;2024-01-25T08:39:33;3.72;;;1.80;;
28796;SDS011;24974;54.444;18.560;2024-01-25T08:42:04;8.77;;;2.05;;
28796;SDS011;24974;54.444;18.560;2024-01-25T08:44:37;7.88;;;1.77;;
28796;SDS011;24974;54.444;18.560;2024-01-25T08:47:09;5.68;;;1.88;;
28796;SDS011;24974;54.444;18.560;2024-01-25T08:49:40;9.93;;;1.80;;
28796;SDS011;24974;54.444;18.560;2024-01-25T08:52:11;4.35;;;1.80;;
28796;SDS011;24974;54.444;18.560;2024-01-25T08:54:41;3.05;;;1.50;;
28796;SDS011;24974;54.444;18.560;2024-01-25T08:57:12;6.15;;;1.77;;
28796;SDS011;24974;54.444;18.560;2024-01-25T08:59:45;5.63;;;1.83;;
28796;SDS011;24974;54.444;18.560;2024-01-25T09:02:16;4.25;;;1.70;;
28796;SDS011;24974;54.444;18.560;2024-01-25T09:04:47;3.45;;;1.42;;
28796;SDS011;24974;54.444;18.560;2024-01-25T09:07:18;2.65;;;1.42;;
28796;SDS011;24974;54.444;18.560;2024-01-25T09:09:49;4.95;;;1.77;;
28796;SDS011;24974;54.444;18.560;2024-01-25T09:12:20;4.03;;;1.25;;
28796;SDS011;24974;54.444;18.560;2024-01-25T09:14:51;6.10;;;1.52;;
28796;SDS011;24974;54.444;18.560;2024-01-25T09:17:22;4.57;;;1.40;;
28796;SDS011;24974;54.444;18.560;2024-01-25T09:19:53;3.50;;;1.38;;
28796;SDS011;24974;54.444;18.560;2024-01-25T09:22:24;4.32;;;1.60;;
28796;SDS011;24974;54.444;18.560;2024-01-25T09:24:55;3.58;;;1.50;;
28796;SDS011;24974;54.444;18.560;2024-01-25T09:27:25;2.92;;;1.80;;
28796;SDS011;24974;54.444;18.560;2024-01-25T09:29:56;3.20;;;1.60;;
28796;SDS011;24974;54.444;18.560;2024-01-25T09:32:27;3.35;;;1.30;;
28796;SDS011;24974;54.444;18.560;2024-01-25T09:34:58;2.97;;;1.30;;
28796;SDS011;24974;54.444;18.560;2024-01-25T09:37:29;5.70;;;1.50;;
28796;SDS011;24974;54.444;18.560;2024-01-25T09:40:00;2.35;;;1.15;;
28796;SDS011;24974;54.444;18.560;2024-01-25T09:42:30;4.13;;;1.20;;
28796;SDS011;24974;54.444;18.560;2024-01-25T09:45:02;4.10;;;1.35;;
28796;SDS011;24974;54.444;18.560;2024-01-25T09:47:36;3.70;;;1.50;;
28796;SDS011;24974;54.444;18.560;2024-01-25T09:50:08;2.10;;;0.93;;
28796;SDS011;24974;54.444;18.560;2024-01-25T09:52:39;3.35;;;1.20;;
28796;SDS011;24974;54.444;18.560;2024-01-25T09:55:13;4.30;;;1.17;;
28796;SDS011;24974;54.444;18.560;2024-01-25T09:57:48;2.15;;;1.13;;
28796;SDS011;24974;54.444;18.560;2024-01-25T10:00:23;3.97;;;1.15;;
28796;SDS011;24974;54.444;18.560;2024-01-25T10:02:54;3.08;;;1.08;;
28796;SDS011;24974;54.444;18.560;2024-01-25T10:05:25;5.95;;;1.17;;
28796;SDS011;24974;54.444;18.560;2024-01-25T10:07:56;3.10;;;1.00;;
28796;SDS011;24974;54.444;18.560;2024-01-25T10:10:34;3.33;;;1.10;;
28796;SDS011;24974;54.444;18.560;2024-01-25T10:13:05;4.35;;;1.13;;
28796;SDS011;24974;54.444;18.560;2024-01-25T10:15:35;4.53;;;1.58;;
28796;SDS011;24974;54.444;18.560;2024-01-25T10:18:07;2.28;;;1.25;;
28796;SDS011;24974;54.444;18.560;2024-01-25T10:20:43;1.63;;;1.03;;
28796;SDS011;24974;54.444;18.560;2024-01-25T10:23:14;3.20;;;1.80;;
28796;SDS011;24974;54.444;18.560;2024-01-25T10:25:45;1.92;;;1.23;;
28796;SDS011;24974;54.444;18.560;2024-01-25T10:28:16;4.43;;;1.33;;
28796;SDS011;24974;54.444;18.560;2024-01-25T10:30:47;3.85;;;1.65;;
28796;SDS011;24974;54.444;18.560;2024-01-25T10:33:17;2.00;;;1.00;;
28796;SDS011;24974;54.444;18.560;2024-01-25T10:35:49;3.67;;;1.80;;
28796;SDS011;24974;54.444;18.560;2024-01-25T10:38:21;4.90;;;1.60;;
28796;SDS011;24974;54.444;18.560;2024-01-25T10:40:54;2.35;;;1.30;;
28796;SDS011;24974;54.444;18.560;2024-01-25T10:43:25;2.72;;;1.17;;
28796;SDS011;24974;54.444;18.560;2024-01-25T10:45:56;3.45;;;1.35;;
28796;SDS011;24974;54.444;18.560;2024-01-25T10:48:30;5.28;;;1.40;;
28796;SDS011;24974;54.444;18.560;2024-01-25T10:51:01;1.95;;;1.20;;
28796;SDS011;24974;54.444;18.560;2024-01-25T10:53:36;2.70;;;1.25;;
28796;SDS011;24974;54.444;18.560;2024-01-25T10:56:08;2.10;;;1.45;;
28796;SDS011;24974;54.444;18.560;2024-01-25T10:58:40;2.00;;;1.23;;
28796;SDS011;24974;54.444;18.560;2024-01-25T11:01:11;3.10;;;1.30;;
28796;SDS011;24974;54.444;18.560;2024-01-25T11:03:43;2.08;;;1.23;;
28796;SDS011;24974;54.444;18.560;2024-01-25T11:06:17;4.25;;;1.20;;
28796;SDS011;24974;54.444;18.560;2024-01-25T11:08:51;2.58;;;1.20;;
28796;SDS011;24974;54.444;18.560;2024-01-25T11:11:22;1.27;;;0.98;;
28796;SDS011;24974;54.444;18.560;2024-01-25T11:13:55;2.55;;;1.30;;
28796;SDS011;24974;54.444;18.560;2024-01-25T11:16:29;2.22;;;1.30;;
28796;SDS011;24974;54.444;18.560;2024-01-25T11:19:01;1.55;;;1.20;;
28796;SDS011;24974;54.444;18.560;2024-01-25T11:21:42;7.03;;;1.48;;
28796;SDS011;24974;54.444;18.560;2024-01-25T11:24:13;3.28;;;1.35;;
28796;SDS011;24974;54.444;18.560;2024-01-25T11:26:50;2.90;;;1.23;;
28796;SDS011;24974;54.444;18.560;2024-01-25T11:29:21;4.45;;;1.10;;
28796;SDS011;24974;54.444;18.560;2024-01-25T11:31:54;2.28;;;1.00;;
28796;SDS011;24974;54.444;18.560;2024-01-25T11:34:25;4.00;;;1.30;;
28796;SDS011;24974;54.444;18.560;2024-01-25T11:36:56;2.78;;;1.17;;
28796;SDS011;24974;54.444;18.560;2024-01-25T11:39:28;1.98;;;1.10;;
28796;SDS011;24974;54.444;18.560;2024-01-25T11:41:59;3.95;;;1.27;;
28796;SDS011;24974;54.444;18.560;2024-01-25T11:44:30;3.88;;;1.45;;
28796;SDS011;24974;54.444;18.560;2024-01-25T11:47:00;1.70;;;1.05;;
28796;SDS011;24974;54.444;18.560;2024-01-25T11:49:31;9.07;;;1.48;;
28796;SDS011;24974;54.444;18.560;2024-01-25T11:52:02;3.17;;;1.23;;
28796;SDS011;24974;54.444;18.560;2024-01-25T11:54:34;3.55;;;1.10;;
28796;SDS011;24974;54.444;18.560;2024-01-25T11:57:05;1.63;;;0.90;;
28796;SDS011;24974;54.444;18.560;2024-01-25T11:59:36;4.05;;;1.20;;
28796;SDS011;24974;54.444;18.560;2024-01-25T12:02:07;2.35;;;1.10;;
28796;SDS011;24974;54.444;18.560;2024-01-25T12:04:41;3.28;;;1.20;;
28796;SDS011;24974;54.444;18.560;2024-01-25T12:07:12;33.13;;;3.17;;
28796;SDS011;24974;54.444;18.560;2024-01-25T12:09:44;11.63;;;2.10;;
28796;SDS011;24974;54.444;18.560;2024-01-25T12:12:15;3.15;;;0.98;;
28796;SDS011;24974;54.444;18.560;2024-01-25T12:14:46;1.90;;;1.10;;
28796;SDS011;24974;54.444;18.560;2024-01-25T12:17:17;5.13;;;1.60;;
28796;SDS011;24974;54.444;18.560;2024-01-25T12:19:48;26.05;;;3.58;;
28796;SDS011;24974;54.444;18.560;2024-01-25T12:22:21;5.43;;;2.03;;
28796;SDS011;24974;54.444;18.560;2024-01-25T12:24:53;2.92;;;1.00;;
28796;SDS011;24974;54.444;18.560;2024-01-25T12:27:25;3.33;;;1.20;;
28796;SDS011;24974;54.444;18.560;2024-01-25T12:29:56;3.97;;;1.23;;
28796;SDS011;24974;54.444;18.560;2024-01-25T12:32:27;2.30;;;1.17;;
28796;SDS011;24974;54.444;18.560;2024-01-25T12:34:58;3.08;;;1.33;;
28796;SDS011;24974;54.444;18.560;2024-01-25T12:37:34;4.25;;;1.10;;
28796;SDS011;24974;54.444;18.560;2024-01-25T12:40:05;1.58;;;1.20;;
28796;SDS011;24974;54.444;18.560;2024-01-25T12:42:36;2.25;;;1.00;;
28796;SDS011;24974;54.444;18.560;2024-01-25T12:45:08;2.45;;;1.05;;
28796;SDS011;24974;54.444;18.560;2024-01-25T12:47:39;2.97;;;1.15;;
28796;SDS011;24974;54.444;18.560;2024-01-25T12:50:10;3.03;;;1.08;;
28796;SDS011;24974;54.444;18.560;2024-01-25T12:52:41;7.72;;;1.20;;
28796;SDS011;24974;54.444;18.560;2024-01-25T12:55:11;3.63;;;1.13;;
28796;SDS011;24974;54.444;18.560;2024-01-25T12:57:42;3.13;;;1.15;;
28796;SDS011;24974;54.444;18.560;2024-01-25T13:00:13;2.67;;;1.20;;
28796;SDS011;24974;54.444;18.560;2024-01-25T13:02:44;1.70;;;1.20;;
28796;SDS011;24974;54.444;18.560;2024-01-25T13:05:15;2.28;;;1.30;;
28796;SDS011;24974;54.444;18.560;2024-01-25T13:07:46;4.35;;;1.27;;
28796;SDS011;24974;54.444;18.560;2024-01-25T13:10:17;16.70;;;3.83;;
28796;SDS011;24974;54.444;18.560;2024-01-25T13:12:47;3.63;;;1.58;;
28796;SDS011;24974;54.444;18.560;2024-01-25T13:15:18;2.75;;;1.27;;
28796;SDS011;24974;54.444;18.560;2024-01-25T13:17:49;4.93;;;1.60;;
28796;SDS011;24974;54.444;18.560;2024-01-25T13:20:20;3.40;;;1.65;;
28796;SDS011;24974;54.444;18.560;2024-01-25T13:22:51;3.50;;;1.67;;
28796;SDS011;24974;54.444;18.560;2024-01-25T13:25:21;4.10;;;1.55;;
28796;SDS011;24974;54.444;18.560;2024-01-25T13:27:52;6.30;;;1.60;;
28796;SDS011;24974;54.444;18.560;2024-01-25T13:30:23;7.03;;;1.70;;
28796;SDS011;24974;54.444;18.560;2024-01-25T13:32:54;3.38;;;1.40;;
28796;SDS011;24974;54.444;18.560;2024-01-25T13:35:25;4.10;;;1.52;;
28796;SDS011;24974;54.444;18.560;2024-01-25T13:37:55;2.22;;;1.30;;
28796;SDS011;24974;54.444;18.560;2024-01-25T13:40:31;3.35;;;1.50;;
28796;SDS011;24974;54.444;18.560;2024-01-25T13:43:01;3.08;;;1.40;;
28796;SDS011;24974;54.444;18.560;2024-01-25T13:45:32;3.53;;;1.50;;
28796;SDS011;24974;54.444;18.560;2024-01-25T13:48:03;3.92;;;1.30;;
28796;SDS011;24974;54.444;18.560;2024-01-25T13:50:34;4.25;;;1.83;;
28796;SDS011;24974;54.444;18.560;2024-01-25T13:53:05;4.93;;;1.67;;
28796;SDS011;24974;54.444;18.560;2024-01-25T13:55:36;2.83;;;1.52;;
28796;SDS011;24974;54.444;18.560;2024-01-25T13:58:07;3.80;;;1.40;;
28796;SDS011;24974;54.444;18.560;2024-01-25T14:00:39;12.30;;;1.30;;
28796;SDS011;24974;54.444;18.560;2024-01-25T14:03:10;3.25;;;1.20;;
28796;SDS011;24974;54.444;18.560;2024-01-25T14:05:41;3.22;;;1.35;;
28796;SDS011;24974;54.444;18.560;2024-01-25T14:08:12;2.10;;;1.30;;
28796;SDS011;24974;54.444;18.560;2024-01-25T14:10:43;2.90;;;1.65;;
28796;SDS011;24974;54.444;18.560;2024-01-25T14:13:14;3.42;;;1.60;;
28796;SDS011;24974;54.444;18.560;2024-01-25T14:15:44;2.80;;;1.30;;
28796;SDS011;24974;54.444;18.560;2024-01-25T14:18:15;6.38;;;1.30;;
28796;SDS011;24974;54.444;18.560;2024-01-25T14:20:46;2.25;;;1.45;;
28796;SDS011;24974;54.444;18.560;2024-01-25T14:23:17;3.42;;;1.52;;
28796;SDS011;24974;54.444;18.560;2024-01-25T14:25:48;3.15;;;1.40;;
28796;SDS011;24974;54.444;18.560;2024-01-25T14:28:19;5.50;;;2.00;;
28796;SDS011;24974;54.444;18.560;2024-01-25T14:30:50;4.68;;;1.95;;
28796;SDS011;24974;54.444;18.560;2024-01-25T14:33:21;4.28;;;1.80;;
28796;SDS011;24974;54.444;18.560;2024-01-25T14:35:51;3.50;;;1.73;;
28796;SDS011;24974;54.444;18.560;2024-01-25T14:38:22;2.22;;;1.50;;
28796;SDS011;24974;54.444;18.560;2024-01-25T14:40:53;2.75;;;1.50;;
28796;SDS011;24974;54.444;18.560;2024-01-25T14:43:23;4.00;;;1.98;;
28796;SDS011;24974;54.444;18.560;2024-01-25T14:45:54;3.10;;;1.92;;
28796;SDS011;24974;54.444;18.560;2024-01-25T14:48:25;2.08;;;1.23;;
28796;SDS011;24974;54.444;18.560;2024-01-25T14:50:56;3.25;;;1.63;;